Time;durP1;ratioP1;P1;durP2;ratioP2;P2;SDS_P1;SDS_P2;PMS_P1;PMS_P2;Temp;Humidity;BMP_temperature;BMP_pressure;BME280_temperature;BME280_humidity;BME280_pressure;Samples;Min_cycle;Max_cycle;Signal;HPM_P1;HPM_P2
2022/12/08 00:02:05;;;;;;;;;;;;;;;2.71;100.00;101029.22;5010520;28;20313;-64
2022/12/08 00:09:20;;;;;;;;;;;;;;;2.75;100.00;101025.75;5011270;28;19924;-64
2022/12/08 00:09:59;;;;;;;;;;;;;;;2.67;100.00;101017.13;5011831;28;20292;-64
2022/12/08 00:12:24;;;;;;;;;;;;;;;2.67;100.00;101023.44;5008640;28;20001;-63
2022/12/08 00:14:49;;;;;;;;;;;;;;;2.74;100.00;101018.63;5011579;28;19940;-64
2022/12/08 00:17:15;;;;;;;;;;;;;;;2.74;100.00;101010.44;5015100;28;20004;-63
2022/12/08 00:19:41;;;;;;;;;;;;;;;2.80;100.00;101005.88;5014985;28;20420;-64
2022/12/08 00:22:07;;;;;;;;;;;;;;;2.78;100.00;101005.28;5014859;28;19914;-65
2022/12/08 00:24:34;;;;;;;;;;;;;;;2.81;100.00;100994.69;5014917;28;20011;-67
2022/12/08 00:27:00;;;;;;;;;;;;;;;2.78;100.00;100997.09;5014710;28;19996;-66
2022/12/08 00:29:25;;;;;;;;;;;;;;;2.79;100.00;101001.50;5014881;28;20440;-66
2022/12/08 00:31:50;;;;;;;;;;;;;;;2.75;100.00;100998.44;5014575;28;19936;-66
2022/12/08 00:34:16;;;;;;;;;;;;;;;2.75;100.00;100995.69;5014664;28;19952;-65
2022/12/08 00:36:41;;;;;;;;;;;;;;;2.85;100.00;100988.72;5014506;28;19944;-66
2022/12/08 00:39:07;;;;;;;;;;;;;;;2.76;100.00;100988.31;5014484;28;19960;-66
2022/12/08 00:44:17;;;;;;;;;;;;;;;2.85;100.00;100992.28;5014905;28;20404;-65
2022/12/08 00:46:43;;;;;;;;;;;;;;;2.79;100.00;100990.56;5014513;28;19913;-64
2022/12/08 00:49:08;;;;;;;;;;;;;;;2.88;100.00;100978.13;5014460;28;20391;-65
2022/12/08 00:51:33;;;;;;;;;;;;;;;2.85;100.00;100970.41;5014472;28;20296;-65
2022/12/08 00:53:59;;;;;;;;;;;;;;;2.87;100.00;100971.00;5014367;28;20380;-65
2022/12/08 00:56:24;;;;;;;;;;;;;;;2.78;100.00;100964.31;5013964;28;19914;-65
2022/12/08 00:58:50;;;;;;;;;;;;;;;2.88;100.00;100972.66;5014069;28;19914;-65
2022/12/08 01:01:15;;;;;;;;;;;;;;;2.88;100.00;100966.38;5014194;28;20191;-65
2022/12/08 01:03:40;;;;;;;;;;;;;;;2.80;100.00;100954.78;5014257;28;19914;-65
2022/12/08 01:06:06;;;;;;;;;;;;;;;2.88;100.00;100955.44;5014185;28;19999;-65
2022/12/08 01:08:31;;;;;;;;;;;;;;;2.78;100.00;100956.13;5010835;28;19913;-65
2022/12/08 01:11:01;;;;;;;;;;;;;;;2.86;100.00;100960.34;5013947;28;20034;-65
2022/12/08 01:13:27;;;;;;;;;;;;;;;2.88;100.00;100955.44;5014044;28;19932;-65
2022/12/08 01:15:52;;;;;;;;;;;;;;;2.86;100.00;100952.13;5014024;28;19917;-66
2022/12/08 01:18:17;;;;;;;;;;;;;;;2.85;100.00;100958.69;5012607;28;19920;-65
2022/12/08 01:20:42;;;;;;;;;;;;;;;2.93;100.00;100945.38;5014173;28;20082;-65
2022/12/08 01:23:07;;;;;;;;;;;;;;;2.92;100.00;100953.84;5013905;28;19932;-65
2022/12/08 01:25:33;;;;;;;;;;;;;;;2.96;100.00;100946.81;5013804;28;19968;-65
2022/12/08 01:27:58;;;;;;;;;;;;;;;3.01;100.00;100952.34;5013646;28;20271;-65
2022/12/08 01:30:23;;;;;;;;;;;;;;;2.97;100.00;100959.41;5013769;28;19924;-65
2022/12/08 01:32:48;;;;;;;;;;;;;;;2.89;100.00;100962.53;5013508;28;20464;-65
2022/12/08 01:35:14;;;;;;;;;;;;;;;2.92;100.00;100962.06;5013571;28;19940;-65
2022/12/08 01:37:39;;;;;;;;;;;;;;;2.88;100.00;100953.53;5013714;28;19918;-65
2022/12/08 01:40:04;;;;;;;;;;;;;;;3.06;100.00;100948.84;5013503;28;19917;-65
2022/12/08 01:42:31;;;;;;;;;;;;;;;2.95;100.00;100945.97;5013618;28;19968;-65
2022/12/08 01:44:58;;;;;;;;;;;;;;;2.95;100.00;100942.44;5014055;28;19992;-66
2022/12/08 01:47:26;;;;;;;;;;;;;;;2.99;100.00;100942.75;5013557;28;20436;-66
2022/12/08 01:49:51;;;;;;;;;;;;;;;2.90;100.00;100945.91;5013401;28;20258;-67
2022/12/08 01:52:25;;;;;;;;;;;;;;;2.87;100.00;100940.94;5013437;28;19933;-67
2022/12/08 01:55:02;;;;;;;;;;;;;;;3.01;100.00;100938.66;5013424;28;19913;-66
2022/12/08 01:57:35;;;;;;;;;;;;;;;2.86;100.00;100938.47;5013446;28;19914;-67
2022/12/08 02:00:03;;;;;;;;;;;;;;;3.00;100.00;100925.28;5013359;28;19917;-68
2022/12/08 02:02:32;;;;;;;;;;;;;;;2.92;100.00;100932.84;5010585;28;19952;-67
2022/12/08 02:04:57;;;;;;;;;;;;;;;2.99;100.00;100924.41;5013109;28;19982;-68
2022/12/08 02:07:23;;;;;;;;;;;;;;;2.78;100.00;100917.88;5012858;28;19987;-68
2022/12/08 02:09:49;;;;;;;;;;;;;;;2.77;100.00;100916.22;5012934;28;19921;-65
2022/12/08 02:12:14;;;;;;;;;;;;;;;2.86;100.00;100911.16;5012797;28;19918;-65
2022/12/08 02:14:39;;;;;;;;;;;;;;;2.80;100.00;100910.25;5013145;28;19933;-66
2022/12/08 02:17:17;;;;;;;;;;;;;;;2.81;100.00;100909.97;5012769;28;19913;-66
2022/12/08 02:19:45;;;;;;;;;;;;;;;2.80;100.00;100913.78;5012850;28;19988;-65
2022/12/08 02:22:16;;;;;;;;;;;;;;;2.90;100.00;100912.28;5012764;28;20354;-64
2022/12/08 02:24:56;;;;;;;;;;;;;;;2.77;100.00;100903.38;5012558;28;20285;-65
2022/12/08 02:27:30;;;;;;;;;;;;;;;2.83;100.00;100904.28;5012591;28;20354;-66
2022/12/08 02:29:55;;;;;;;;;;;;;;;2.79;100.00;100890.28;5012634;28;19927;-66
2022/12/08 02:32:26;;;;;;;;;;;;;;;2.81;100.00;100892.78;5012421;28;19913;-66
2022/12/08 02:34:54;;;;;;;;;;;;;;;2.78;100.00;100885.91;5012593;28;20009;-64
2022/12/08 02:37:29;;;;;;;;;;;;;;;2.83;100.00;100884.31;5012110;28;19913;-63
2022/12/08 02:40:05;;;;;;;;;;;;;;;2.80;100.00;100874.72;5012161;28;19925;-63
2022/12/08 02:42:33;;;;;;;;;;;;;;;2.79;100.00;100873.88;5012464;28;19917;-63
2022/12/08 02:45:01;;;;;;;;;;;;;;;2.79;100.00;100870.34;5012534;28;19981;-64
2022/12/08 02:47:27;;;;;;;;;;;;;;;2.77;100.00;100869.75;5012559;28;20314;-63
2022/12/08 02:49:53;;;;;;;;;;;;;;;2.75;100.00;100872.75;5012393;28;19920;-63
2022/12/08 02:52:18;;;;;;;;;;;;;;;2.86;100.00;100867.44;5012280;28;19920;-63
2022/12/08 02:54:46;;;;;;;;;;;;;;;2.82;100.00;100864.38;5010817;28;19917;-64
2022/12/08 02:57:17;;;;;;;;;;;;;;;2.77;100.00;100859.69;5010748;28;19917;-64
2022/12/08 03:00:01;;;;;;;;;;;;;;;2.84;100.00;100861.38;5011485;28;19932;-63
2022/12/08 03:02:29;;;;;;;;;;;;;;;2.73;100.00;100855.78;5012366;28;19914;-64
2022/12/08 03:04:54;;;;;;;;;;;;;;;2.81;100.00;100855.34;5012247;28;19917;-64
2022/12/08 03:07:23;;;;;;;;;;;;;;;2.82;100.00;100848.00;5010718;28;19917;-64
2022/12/08 03:09:54;;;;;;;;;;;;;;;2.79;100.00;100845.75;5011349;28;19955;-64
2022/12/08 03:12:20;;;;;;;;;;;;;;;2.79;100.00;100871.16;5011860;28;19918;-63
2022/12/08 03:14:51;;;;;;;;;;;;;;;2.84;100.00;100864.13;5011908;28;20404;-63
2022/12/08 03:17:18;;;;;;;;;;;;;;;2.95;100.00;100861.25;5011957;28;19963;-64
2022/12/08 03:19:44;;;;;;;;;;;;;;;2.93;100.00;100862.59;5011797;28;19919;-66
2022/12/08 03:22:10;;;;;;;;;;;;;;;2.86;100.00;100862.78;5011890;28;19917;-67
2022/12/08 03:24:37;;;;;;;;;;;;;;;2.93;100.00;100857.94;5011896;28;20365;-67
2022/12/08 03:27:04;;;;;;;;;;;;;;;2.99;100.00;100856.09;5011978;28;20388;-67
2022/12/08 03:29:31;;;;;;;;;;;;;;;2.98;100.00;100859.91;5011680;28;19944;-67
2022/12/08 03:31:58;;;;;;;;;;;;;;;3.00;100.00;100851.47;5011702;28;19917;-67
2022/12/08 03:34:25;;;;;;;;;;;;;;;2.95;100.00;100835.84;5011881;28;19917;-67
2022/12/08 03:36:50;;;;;;;;;;;;;;;2.90;100.00;100831.13;5011758;28;19914;-67
2022/12/08 03:39:15;;;;;;;;;;;;;;;2.93;100.00;100822.41;5011903;28;20067;-67
2022/12/08 03:41:40;;;;;;;;;;;;;;;2.88;100.00;100813.34;5011921;28;19913;-65
2022/12/08 03:44:06;;;;;;;;;;;;;;;2.97;100.00;100811.81;5011771;28;20035;-65
2022/12/08 03:46:31;;;;;;;;;;;;;;;2.91;100.00;100810.94;5011864;28;19914;-65
2022/12/08 03:48:56;;;;;;;;;;;;;;;2.94;100.00;100812.31;5011826;28;19963;-64
2022/12/08 03:51:22;;;;;;;;;;;;;;;2.94;100.00;100802.22;5014358;28;19913;-64
2022/12/08 03:53:48;;;;;;;;;;;;;;;3.01;100.00;100807.47;5014592;28;20341;-65
2022/12/08 03:56:15;;;;;;;;;;;;;;;3.01;100.00;100806.66;5013570;28;19921;-65
2022/12/08 03:58:40;;;;;;;;;;;;;;;3.14;100.00;100808.97;5015232;28;19913;-65
2022/12/08 04:01:05;;;;;;;;;;;;;;;2.91;100.00;100807.34;5015275;28;19914;-65
2022/12/08 04:03:31;;;;;;;;;;;;;;;3.02;100.00;100805.59;5015352;28;20364;-65
2022/12/08 04:05:56;;;;;;;;;;;;;;;2.86;100.00;100801.84;5015372;28;20318;-65
2022/12/08 04:08:21;;;;;;;;;;;;;;;2.97;100.00;100793.50;5014751;28;19921;-65
2022/12/08 04:10:46;;;;;;;;;;;;;;;2.87;100.00;100790.66;5015101;28;19913;-66
2022/12/08 04:13:11;;;;;;;;;;;;;;;2.95;100.00;100790.19;5015045;28;20380;-65
2022/12/08 04:15:37;;;;;;;;;;;;;;;3.10;100.00;100792.28;5015131;28;19921;-65
2022/12/08 04:18:02;;;;;;;;;;;;;;;3.05;100.00;100785.91;5015124;28;20265;-65
2022/12/08 04:20:27;;;;;;;;;;;;;;;3.04;100.00;100785.09;5014973;28;19914;-64
2022/12/08 04:22:52;;;;;;;;;;;;;;;2.97;100.00;100779.84;5014958;28;19967;-65
2022/12/08 04:25:17;;;;;;;;;;;;;;;2.97;100.00;100784.50;5014802;28;19914;-65
2022/12/08 04:27:42;;;;;;;;;;;;;;;2.97;100.00;100774.38;5014894;28;19913;-65
2022/12/08 04:30:08;;;;;;;;;;;;;;;2.90;100.00;100773.75;5014659;28;20369;-66
2022/12/08 04:32:33;;;;;;;;;;;;;;;3.01;100.00;100771.94;5014700;28;19917;-66
2022/12/08 04:34:58;;;;;;;;;;;;;;;3.02;100.00;100772.78;5014814;28;19913;-66
2022/12/08 04:37:23;;;;;;;;;;;;;;;3.06;100.00;100774.75;5014709;28;20020;-67
2022/12/08 04:39:49;;;;;;;;;;;;;;;3.10;100.00;100780.53;5014618;28;19913;-66
2022/12/08 04:42:14;;;;;;;;;;;;;;;2.95;100.00;100782.00;5014547;28;20281;-67
2022/12/08 04:44:39;;;;;;;;;;;;;;;3.16;100.00;100779.47;5014616;28;20043;-67
2022/12/08 04:47:04;;;;;;;;;;;;;;;3.05;100.00;100777.72;5014578;28;19987;-66
2022/12/08 04:49:29;;;;;;;;;;;;;;;3.06;100.00;100782.09;5014402;28;20005;-66
2022/12/08 04:51:55;;;;;;;;;;;;;;;3.07;100.00;100775.56;5011695;28;19935;-67
2022/12/08 04:54:20;;;;;;;;;;;;;;;3.06;100.00;100773.91;5014249;28;19921;-66
2022/12/08 04:56:45;;;;;;;;;;;;;;;3.05;100.00;100772.25;5013891;28;19951;-66
2022/12/08 04:59:10;;;;;;;;;;;;;;;3.09;100.00;100762.47;5013918;28;20301;-68
2022/12/08 05:01:35;;;;;;;;;;;;;;;3.10;100.00;100767.66;5013782;28;19997;-67
2022/12/08 05:04:00;;;;;;;;;;;;;;;3.04;100.00;100763.25;5014157;28;19920;-69
2022/12/08 05:06:26;;;;;;;;;;;;;;;2.95;100.00;100764.78;5013983;28;19969;-67
2022/12/08 05:08:51;;;;;;;;;;;;;;;3.06;100.00;100769.28;5013968;28;19920;-68
2022/12/08 05:11:16;;;;;;;;;;;;;;;2.93;100.00;100761.47;5014128;28;19925;-67
2022/12/08 05:13:41;;;;;;;;;;;;;;;2.96;100.00;100766.44;5013658;28;19923;-67
2022/12/08 05:16:08;;;;;;;;;;;;;;;2.97;100.00;100771.63;5013883;28;19924;-67
2022/12/08 05:18:34;;;;;;;;;;;;;;;2.97;100.00;100782.56;5013802;28;19917;-67
2022/12/08 05:20:59;;;;;;;;;;;;;;;3.06;100.00;100769.28;5013766;28;19917;-67
2022/12/08 05:23:25;;;;;;;;;;;;;;;3.05;100.00;100780.47;5013516;28;20453;-67
2022/12/08 05:25:50;;;;;;;;;;;;;;;3.10;100.00;100786.00;5013776;28;19913;-67
2022/12/08 05:28:15;;;;;;;;;;;;;;;3.09;100.00;100784.34;5013692;28;19940;-67
2022/12/08 05:30:41;;;;;;;;;;;;;;;3.33;100.00;100784.00;5013812;28;19913;-67
2022/12/08 05:33:06;;;;;;;;;;;;;;;3.25;100.00;100782.59;5012774;28;19967;-68
2022/12/08 05:35:31;;;;;;;;;;;;;;;3.04;100.00;100773.34;5010909;28;20254;-66
2022/12/08 05:37:57;;;;;;;;;;;;;;;2.86;100.00;100775.34;5012624;28;19961;-67
2022/12/08 05:40:23;;;;;;;;;;;;;;;2.97;100.00;100768.09;5012124;28;19914;-67
2022/12/08 05:42:48;;;;;;;;;;;;;;;2.86;100.00;100769.88;5012500;28;20284;-67
2022/12/08 05:45:13;;;;;;;;;;;;;;;2.88;100.00;100770.44;5006448;28;19946;-66
2022/12/08 05:47:38;;;;;;;;;;;;;;;2.85;100.00;100765.50;5002084;28;20258;-65
2022/12/08 05:50:04;;;;;;;;;;;;;;;2.72;100.00;100763.97;5001126;28;19917;-68
2022/12/08 05:52:30;;;;;;;;;;;;;;;2.79;100.00;100755.59;5002782;28;19964;-67
2022/12/08 05:54:55;;;;;;;;;;;;;;;2.65;100.00;100755.16;5003119;28;19913;-67
2022/12/08 05:57:20;;;;;;;;;;;;;;;2.68;100.00;100748.34;5002788;28;19968;-67
2022/12/08 05:59:46;;;;;;;;;;;;;;;2.69;100.00;100744.53;5003501;28;19921;-67
2022/12/08 06:02:11;;;;;;;;;;;;;;;2.84;100.00;100744.72;5012118;28;19925;-67
2022/12/08 06:04:36;;;;;;;;;;;;;;;2.71;100.00;100745.13;5011746;28;19916;-67
2022/12/08 06:07:01;;;;;;;;;;;;;;;2.74;100.00;100744.63;5011555;28;20250;-69
2022/12/08 06:09:26;;;;;;;;;;;;;;;2.70;100.00;100747.00;5012038;28;19917;-67
2022/12/08 06:11:52;;;;;;;;;;;;;;;2.83;100.00;100744.97;5011975;28;19964;-67
2022/12/08 06:14:17;;;;;;;;;;;;;;;2.75;100.00;100747.09;5011071;28;19921;-67
2022/12/08 06:16:42;;;;;;;;;;;;;;;2.68;100.00;100746.47;5012090;28;19913;-67
2022/12/08 06:19:07;;;;;;;;;;;;;;;2.81;100.00;100754.25;5011439;28;19925;-67
2022/12/08 06:21:33;;;;;;;;;;;;;;;2.78;100.00;100748.47;5011205;28;19945;-67
2022/12/08 06:23:58;;;;;;;;;;;;;;;2.67;100.00;100743.97;5011468;28;19913;-67
2022/12/08 06:26:23;;;;;;;;;;;;;;;2.61;100.00;100746.66;5011380;28;20000;-67
2022/12/08 06:28:49;;;;;;;;;;;;;;;2.67;100.00;100738.50;5011488;28;19953;-67
2022/12/08 06:31:16;;;;;;;;;;;;;;;2.70;100.00;100740.75;5011335;28;19931;-67
2022/12/08 06:33:41;;;;;;;;;;;;;;;2.63;100.00;100733.56;5010042;28;20046;-67
2022/12/08 06:36:07;;;;;;;;;;;;;;;2.68;100.00;100731.97;5006629;28;20373;-67
2022/12/08 06:38:32;;;;;;;;;;;;;;;2.62;100.00;100739.28;5011363;28;20026;-67
2022/12/08 06:40:57;;;;;;;;;;;;;;;2.65;100.00;100736.03;5011207;28;19913;-67
2022/12/08 06:43:23;;;;;;;;;;;;;;;2.68;100.00;100724.63;5008425;28;19920;-66
2022/12/08 06:45:48;;;;;;;;;;;;;;;2.74;100.00;100730.97;5010972;28;19917;-67
2022/12/08 06:48:14;;;;;;;;;;;;;;;2.72;100.00;100733.94;5011038;28;19921;-67
2022/12/08 06:50:39;;;;;;;;;;;;;;;2.66;100.00;100732.22;5011121;28;20002;-65
2022/12/08 06:53:04;;;;;;;;;;;;;;;2.69;100.00;100734.47;5011346;28;20495;-64
2022/12/08 06:55:29;;;;;;;;;;;;;;;2.69;100.00;100734.47;5011087;28;20017;-66
2022/12/08 06:57:54;;;;;;;;;;;;;;;2.68;100.00;100741.00;5010989;28;20020;-67
2022/12/08 07:00:20;;;;;;;;;;;;;;;2.76;100.00;100731.50;5011109;28;19941;-66
2022/12/08 07:02:45;;;;;;;;;;;;;;;2.65;100.00;100725.94;5011153;28;19975;-66
2022/12/08 07:05:10;;;;;;;;;;;;;;;2.74;100.00;100731.78;5012141;28;19917;-67
2022/12/08 07:07:35;;;;;;;;;;;;;;;2.68;100.00;100724.63;5011234;28;19913;-67
2022/12/08 07:10:00;;;;;;;;;;;;;;;2.63;100.00;100728.13;5011049;28;20354;-66
2022/12/08 07:12:26;;;;;;;;;;;;;;;2.71;100.00;100728.72;5011332;28;19917;-66
2022/12/08 07:14:51;;;;;;;;;;;;;;;2.67;100.00;100731.16;5010999;28;20358;-66
2022/12/08 07:17:16;;;;;;;;;;;;;;;2.71;100.00;100731.47;5010660;28;20536;-66
2022/12/08 07:19:41;;;;;;;;;;;;;;;2.71;100.00;100726.81;5011076;28;19913;-67
2022/12/08 07:22:06;;;;;;;;;;;;;;;2.65;100.00;100728.66;5010841;28;19913;-67
2022/12/08 07:24:32;;;;;;;;;;;;;;;2.77;100.00;100722.22;5012699;28;19921;-66
2022/12/08 07:26:57;;;;;;;;;;;;;;;2.73;100.00;100730.13;5015514;28;19939;-67
2022/12/08 07:29:22;;;;;;;;;;;;;;;2.71;100.00;100732.28;5015628;28;20044;-66
2022/12/08 07:31:47;;;;;;;;;;;;;;;2.73;100.00;100732.84;5016059;28;19921;-65
2022/12/08 07:34:13;;;;;;;;;;;;;;;2.81;100.00;100735.13;5015915;28;19913;-64
2022/12/08 07:36:38;;;;;;;;;;;;;;;2.80;100.00;100727.19;5015639;28;20332;-64
2022/12/08 07:39:03;;;;;;;;;;;;;;;2.83;100.00;100736.78;5015896;28;19914;-65
2022/12/08 07:41:28;;;;;;;;;;;;;;;2.77;100.00;100741.34;5015815;28;19993;-65
2022/12/08 07:43:54;;;;;;;;;;;;;;;2.83;100.00;100737.63;5015698;28;19917;-65
2022/12/08 07:46:20;;;;;;;;;;;;;;;2.76;100.00;100732.34;5015642;28;19913;-65
2022/12/08 07:48:46;;;;;;;;;;;;;;;2.77;100.00;100735.91;5015774;28;19913;-65
2022/12/08 07:51:12;;;;;;;;;;;;;;;2.73;100.00;100729.31;5015698;28;20354;-64
2022/12/08 07:53:38;;;;;;;;;;;;;;;2.82;100.00;100730.50;5015870;28;20358;-64
2022/12/08 07:56:07;;;;;;;;;;;;;;;2.78;100.00;100735.66;5015543;28;19924;-64
2022/12/08 07:58:33;;;;;;;;;;;;;;;2.79;100.00;100740.00;5015319;28;20365;-64
2022/12/08 08:00:58;;;;;;;;;;;;;;;2.86;100.00;100739.81;5015619;28;20062;-64
2022/12/08 08:03:23;;;;;;;;;;;;;;;2.94;100.00;100741.28;5030744;28;19917;-64
2022/12/08 08:05:49;;;;;;;;;;;;;;;3.04;100.00;100746.00;5015682;28;19917;-64
2022/12/08 08:08:14;;;;;;;;;;;;;;;2.88;100.00;100754.06;5015454;28;19924;-65
2022/12/08 08:10:40;;;;;;;;;;;;;;;2.88;100.00;100754.06;5015385;28;19956;-65
2022/12/08 08:13:05;;;;;;;;;;;;;;;2.90;100.00;100751.91;5015327;28;19928;-66
2022/12/08 08:15:30;;;;;;;;;;;;;;;3.00;100.00;100753.91;5015305;28;19971;-66
2022/12/08 08:17:55;;;;;;;;;;;;;;;2.84;100.00;100743.91;5015324;28;19940;-66
2022/12/08 08:20:21;;;;;;;;;;;;;;;2.75;100.00;100743.50;5015175;28;20280;-66
2022/12/08 08:22:47;;;;;;;;;;;;;;;2.76;100.00;100746.00;5015305;28;19917;-66
2022/12/08 08:25:12;;;;;;;;;;;;;;;2.86;100.00;100742.56;5015673;28;19996;-66
2022/12/08 08:27:38;;;;;;;;;;;;;;;2.94;100.00;100749.47;5016272;28;19956;-68
2022/12/08 08:30:04;;;;;;;;;;;;;;;2.75;100.00;100747.09;5016194;28;20285;-66
2022/12/08 08:32:33;;;;;;;;;;;;;;;2.75;100.00;100752.56;5014979;28;19953;-65
2022/12/08 08:34:59;;;;;;;;;;;;;;;2.77;100.00;100746.81;5014841;28;20424;-65
2022/12/08 08:37:24;;;;;;;;;;;;;;;2.84;100.00;100747.44;5014153;28;20376;-66
2022/12/08 08:39:49;;;;;;;;;;;;;;;2.74;100.00;100747.34;5014867;28;19913;-66
2022/12/08 08:42:14;;;;;;;;;;;;;;;2.76;100.00;100747.91;5014805;28;19921;-66
2022/12/08 08:44:39;;;;;;;;;;;;;;;2.81;100.00;100745.25;5014799;28;19920;-66
2022/12/08 08:47:05;;;;;;;;;;;;;;;2.83;100.00;100743.09;5014710;28;19983;-66
2022/12/08 08:49:30;;;;;;;;;;;;;;;2.82;100.00;100744.16;5014636;28;19921;-66
2022/12/08 08:51:55;;;;;;;;;;;;;;;2.84;100.00;100755.63;5014687;28;19954;-66
2022/12/08 08:54:20;;;;;;;;;;;;;;;2.84;100.00;100744.72;5014589;28;20381;-66
2022/12/08 08:56:47;;;;;;;;;;;;;;;2.80;100.00;100746.31;5014180;28;19913;-66
2022/12/08 08:59:12;;;;;;;;;;;;;;;2.77;100.00;100755.03;5014282;28;19918;-66
2022/12/08 09:01:37;;;;;;;;;;;;;;;2.54;100.00;100746.03;5014481;28;19928;-66
2022/12/08 09:04:02;;;;;;;;;;;;;;;2.45;100.00;100758.47;5014390;28;19913;-66
2022/12/08 09:06:28;;;;;;;;;;;;;;;2.39;100.00;100754.00;5014409;28;19965;-66
2022/12/08 09:08:53;;;;;;;;;;;;;;;2.31;100.00;100752.56;5014277;28;19948;-67
2022/12/08 09:11:18;;;;;;;;;;;;;;;2.30;100.00;100753.66;5014403;28;19917;-70
2022/12/08 09:13:46;;;;;;;;;;;;;;;2.34;100.00;100754.78;5014541;28;19917;-70
2022/12/08 09:16:11;;;;;;;;;;;;;;;2.36;100.00;100757.28;5014199;28;19913;-69
2022/12/08 09:18:36;;;;;;;;;;;;;;;2.40;100.00;100750.22;5014318;28;20012;-69
2022/12/08 09:21:11;;;;;;;;;;;;;;;2.50;100.00;100748.41;5014457;28;20385;-69
2022/12/08 09:23:37;;;;;;;;;;;;;;;2.54;100.00;100746.03;5008795;28;20329;-68
2022/12/08 09:26:02;;;;;;;;;;;;;;;2.65;100.00;100746.97;4993453;28;20419;-69
2022/12/08 09:28:27;;;;;;;;;;;;;;;2.79;100.00;100747.41;4994039;28;19975;-69
2022/12/08 09:30:52;;;;;;;;;;;;;;;2.70;100.00;100744.28;4993783;28;19917;-68
2022/12/08 09:33:18;;;;;;;;;;;;;;;2.81;100.00;100747.97;4993563;28;19918;-69
2022/12/08 09:35:43;;;;;;;;;;;;;;;2.79;100.00;100745.47;4993635;28;20020;-68
2022/12/08 09:38:08;;;;;;;;;;;;;;;2.85;100.00;100740.91;4993783;28;20008;-68
2022/12/08 09:40:39;;;;;;;;;;;;;;;2.85;100.00;100740.91;4993584;28;20392;-68
2022/12/08 09:43:16;;;;;;;;;;;;;;;2.91;100.00;100736.31;4992262;28;19917;-68
2022/12/08 09:45:43;;;;;;;;;;;;;;;2.94;100.00;100731.16;5007162;28;20266;-69
2022/12/08 09:48:13;;;;;;;;;;;;;;;3.03;100.00;100731.53;5011722;28;19996;-69
2022/12/08 09:50:45;;;;;;;;;;;;;;;3.04;100.00;100735.91;5012380;28;19920;-69
2022/12/08 09:53:16;;;;;;;;;;;;;;;3.10;100.00;100734.06;5012441;28;19972;-69
2022/12/08 09:55:45;;;;;;;;;;;;;;;3.14;100.00;100737.91;5012350;28;19917;-69
2022/12/08 09:58:36;;;;;;;;;;;;;;;3.14;100.00;100732.44;5012164;28;19967;-68
2022/12/08 10:01:01;;;;;;;;;;;;;;;3.20;100.00;100727.84;5010285;28;19984;-68
2022/12/08 10:03:28;;;;;;;;;;;;;;;3.21;100.00;100727.56;5011781;28;19956;-69
2022/12/08 10:06:02;;;;;;;;;;;;;;;3.26;100.00;100730.38;5012952;28;19921;-69
2022/12/08 10:08:30;;;;;;;;;;;;;;;3.38;100.00;100732.94;5011931;28;19917;-69
2022/12/08 10:10:57;;;;;;;;;;;;;;;3.25;100.00;100728.72;5011831;28;19933;-69
2022/12/08 10:13:37;;;;;;;;;;;;;;;3.28;100.00;100730.09;5011444;28;19921;-69
2022/12/08 10:16:11;;;;;;;;;;;;;;;3.24;100.00;100734.47;5011675;28;19919;-69
2022/12/08 10:18:36;;;;;;;;;;;;;;;3.30;100.00;100725.22;5011811;28;20010;-69
2022/12/08 10:21:10;;;;;;;;;;;;;;;3.23;100.00;100722.69;5011725;28;19972;-67
2022/12/08 10:23:38;;;;;;;;;;;;;;;3.37;100.00;100727.72;5010464;28;20376;-69
2022/12/08 10:26:04;;;;;;;;;;;;;;;3.32;100.00;100723.03;5012031;28;20440;-70
2022/12/08 10:28:30;;;;;;;;;;;;;;;3.24;100.00;100724.34;5011842;28;19914;-69
2022/12/08 10:30:55;;;;;;;;;;;;;;;3.26;100.00;100718.59;5011622;28;19925;-67
2022/12/08 10:33:21;;;;;;;;;;;;;;;3.34;100.00;100723.63;5011622;28;19917;-68
2022/12/08 10:35:51;;;;;;;;;;;;;;;3.30;100.00;100718.94;5011552;28;19918;-69
2022/12/08 10:38:26;;;;;;;;;;;;;;;3.25;100.00;100714.25;5011626;28;19913;-70
2022/12/08 10:40:52;;;;;;;;;;;;;;;3.20;100.00;100700.50;5011375;28;19913;-69
2022/12/08 10:43:22;;;;;;;;;;;;;;;3.26;100.00;100708.50;5010096;28;20040;-68
2022/12/08 10:45:47;;;;;;;;;;;;;;;3.34;100.00;100715.41;5011174;28;20004;-69
2022/12/08 10:48:12;;;;;;;;;;;;;;;3.31;100.00;100715.91;5011118;28;20064;-69
2022/12/08 10:50:40;;;;;;;;;;;;;;;3.33;100.00;100711.03;5011312;28;19917;-68
2022/12/08 10:53:08;;;;;;;;;;;;;;;3.45;100.00;100708.09;5011272;28;19917;-68
2022/12/08 10:55:39;;;;;;;;;;;;;;;3.42;100.00;100708.63;5011124;28;19952;-69
2022/12/08 10:58:04;;;;;;;;;;;;;;;3.31;100.00;100706.91;5011102;28;19918;-69
2022/12/08 11:00:29;;;;;;;;;;;;;;;3.38;100.00;100708.31;5010783;28;19929;-69
2022/12/08 11:02:59;;;;;;;;;;;;;;;3.46;100.00;100707.03;5009402;28;19940;-69
2022/12/08 11:05:28;;;;;;;;;;;;;;;3.49;100.00;100713.88;5010945;28;19968;-69
2022/12/08 11:07:54;;;;;;;;;;;;;;;3.45;100.00;100699.09;5010916;28;20404;-68
2022/12/08 11:10:25;;;;;;;;;;;;;;;3.48;100.00;100698.53;5011123;28;19917;-68
2022/12/08 11:12:51;;;;;;;;;;;;;;;3.67;100.00;100696.22;5010829;28;20115;-68
2022/12/08 11:15:16;;;;;;;;;;;;;;;3.58;100.00;100695.88;5011069;28;20602;-69
2022/12/08 11:17:44;;;;;;;;;;;;;;;3.50;100.00;100697.19;5009787;28;19914;-69
2022/12/08 11:20:09;;;;;;;;;;;;;;;3.55;100.00;100686.28;5009564;28;19940;-68
2022/12/08 11:22:39;;;;;;;;;;;;;;;3.58;100.00;100685.78;5010707;28;20377;-68
2022/12/08 11:25:04;;;;;;;;;;;;;;;3.54;100.00;100681.91;5010884;28;19913;-69
2022/12/08 11:27:31;;;;;;;;;;;;;;;3.63;100.00;100681.41;5010660;28;20372;-68
2022/12/08 11:29:56;;;;;;;;;;;;;;;3.56;100.00;100678.91;5010785;28;20482;-69
2022/12/08 11:32:21;;;;;;;;;;;;;;;3.55;100.00;100675.34;5010708;28;20000;-69
2022/12/08 11:34:50;;;;;;;;;;;;;;;3.64;100.00;100672.13;5010569;28;19919;-69
2022/12/08 11:37:28;;;;;;;;;;;;;;;3.61;100.00;100672.63;5010390;28;19960;-69
2022/12/08 11:39:55;;;;;;;;;;;;;;;3.72;100.00;100671.63;5010253;28;19971;-69
2022/12/08 11:42:23;;;;;;;;;;;;;;;3.64;100.00;100674.84;5009700;28;20400;-67
2022/12/08 11:44:51;;;;;;;;;;;;;;;3.70;100.00;100671.91;5010520;28;19924;-67
2022/12/08 11:47:21;;;;;;;;;;;;;;;3.66;100.00;100676.22;5010566;28;19936;-67
2022/12/08 11:49:47;;;;;;;;;;;;;;;3.54;100.00;100675.63;5010563;28;20055;-67
2022/12/08 11:52:28;;;;;;;;;;;;;;;3.43;100.00;100663.78;5010419;28;19932;-67
2022/12/08 11:54:58;;;;;;;;;;;;;;;3.43;100.00;100669.25;5010423;28;19964;-67
2022/12/08 11:57:26;;;;;;;;;;;;;;;3.47;100.00;100664.91;5010417;28;20028;-67
2022/12/08 11:59:53;;;;;;;;;;;;;;;3.46;100.00;100665.16;5010707;28;19951;-67
2022/12/08 12:02:20;;;;;;;;;;;;;;;3.52;100.00;100659.47;5010771;28;19913;-67
2022/12/08 12:04:48;;;;;;;;;;;;;;;3.46;100.00;100665.16;5010682;28;20242;-67
2022/12/08 12:07:39;;;;;;;;;;;;;;;3.47;100.00;100659.44;5009473;28;19924;-67
2022/12/08 12:10:16;;;;;;;;;;;;;;;3.45;100.00;100661.59;5010689;28;19917;-67
2022/12/08 12:12:53;;;;;;;;;;;;;;;3.47;100.00;100653.97;5013670;28;19917;-67
2022/12/08 12:15:19;;;;;;;;;;;;;;;3.43;100.00;100658.31;5015438;28;19960;-67
2022/12/08 12:17:44;;;;;;;;;;;;;;;3.37;100.00;100651.97;5014003;28;20012;-67
2022/12/08 12:20:16;;;;;;;;;;;;;;;3.30;100.00;100648.66;5012909;28;19952;-67
2022/12/08 12:22:45;;;;;;;;;;;;;;;3.29;100.00;100652.47;5010258;28;20373;-67
2022/12/08 12:25:17;;;;;;;;;;;;;;;3.26;100.00;100656.56;5013158;28;19981;-67
2022/12/08 12:27:44;;;;;;;;;;;;;;;3.27;100.00;100649.16;5012448;28;19917;-68
2022/12/08 12:30:18;;;;;;;;;;;;;;;3.24;100.00;100647.78;5013866;28;19917;-67
2022/12/08 12:32:45;;;;;;;;;;;;;;;3.23;100.00;100650.78;5011002;28;20056;-68
2022/12/08 12:35:34;;;;;;;;;;;;;;;3.22;100.00;100640.94;4999164;28;19948;-67
2022/12/08 12:38:01;;;;;;;;;;;;;;;3.19;100.00;100634.09;4998952;28;19913;-68
2022/12/08 12:40:28;;;;;;;;;;;;;;;3.18;100.00;100635.16;5004333;28;19967;-67